sensor_id;sensor_type;location;lat;lon;timestamp;P1;durP1;ratioP1;P2;durP2;ratioP2
35632;SDS011;21754;48.216;-1.628;2022-07-30T00:02:07;4.25;;;3.85;;
35632;SDS011;21754;48.216;-1.628;2022-07-30T00:04:34;10.57;;;4.97;;
35632;SDS011;21754;48.216;-1.628;2022-07-30T00:06:59;9.02;;;3.55;;
35632;SDS011;21754;48.216;-1.628;2022-07-30T00:09:25;9.13;;;4.18;;
35632;SDS011;21754;48.216;-1.628;2022-07-30T00:11:51;13.38;;;5.22;;
35632;SDS011;21754;48.216;-1.628;2022-07-30T00:14:16;8.45;;;4.13;;
35632;SDS011;21754;48.216;-1.628;2022-07-30T00:16:42;7.18;;;4.32;;
35632;SDS011;21754;48.216;-1.628;2022-07-30T00:19:07;11.43;;;4.45;;
35632;SDS011;21754;48.216;-1.628;2022-07-30T00:21:33;15.20;;;3.78;;
35632;SDS011;21754;48.216;-1.628;2022-07-30T00:23:59;7.15;;;4.38;;
35632;SDS011;21754;48.216;-1.628;2022-07-30T00:26:25;9.90;;;4.55;;
35632;SDS011;21754;48.216;-1.628;2022-07-30T00:28:51;5.93;;;4.05;;
35632;SDS011;21754;48.216;-1.628;2022-07-30T00:31:16;12.32;;;4.90;;
35632;SDS011;21754;48.216;-1.628;2022-07-30T00:33:42;5.53;;;4.50;;
35632;SDS011;21754;48.216;-1.628;2022-07-30T00:36:07;9.98;;;4.85;;
35632;SDS011;21754;48.216;-1.628;2022-07-30T00:38:33;7.30;;;4.80;;
35632;SDS011;21754;48.216;-1.628;2022-07-30T00:40:59;11.30;;;5.35;;
35632;SDS011;21754;48.216;-1.628;2022-07-30T00:43:24;5.70;;;4.13;;
35632;SDS011;21754;48.216;-1.628;2022-07-30T00:45:50;9.95;;;5.28;;
35632;SDS011;21754;48.216;-1.628;2022-07-30T00:48:16;5.78;;;4.60;;
35632;SDS011;21754;48.216;-1.628;2022-07-30T00:50:41;9.82;;;4.65;;
35632;SDS011;21754;48.216;-1.628;2022-07-30T00:53:07;13.15;;;5.97;;
35632;SDS011;21754;48.216;-1.628;2022-07-30T00:55:33;6.53;;;4.60;;
35632;SDS011;21754;48.216;-1.628;2022-07-30T00:57:59;10.23;;;5.05;;
35632;SDS011;21754;48.216;-1.628;2022-07-30T01:00:25;14.93;;;7.22;;
35632;SDS011;21754;48.216;-1.628;2022-07-30T01:02:51;12.75;;;5.03;;
35632;SDS011;21754;48.216;-1.628;2022-07-30T01:05:17;9.18;;;4.60;;
35632;SDS011;21754;48.216;-1.628;2022-07-30T01:07:43;7.65;;;6.15;;
35632;SDS011;21754;48.216;-1.628;2022-07-30T01:10:10;7.55;;;4.72;;
35632;SDS011;21754;48.216;-1.628;2022-07-30T01:12:39;9.05;;;5.55;;
35632;SDS011;21754;48.216;-1.628;2022-07-30T01:15:06;14.13;;;5.25;;
35632;SDS011;21754;48.216;-1.628;2022-07-30T01:17:34;8.05;;;4.70;;
35632;SDS011;21754;48.216;-1.628;2022-07-30T01:20:35;9.23;;;4.75;;
35632;SDS011;21754;48.216;-1.628;2022-07-30T01:23:17;6.72;;;5.43;;
35632;SDS011;21754;48.216;-1.628;2022-07-30T01:26:10;8.10;;;5.28;;
35632;SDS011;21754;48.216;-1.628;2022-07-30T01:28:39;13.45;;;5.97;;
35632;SDS011;21754;48.216;-1.628;2022-07-30T01:31:07;5.95;;;4.88;;
35632;SDS011;21754;48.216;-1.628;2022-07-30T01:33:36;9.00;;;5.65;;
35632;SDS011;21754;48.216;-1.628;2022-07-30T01:36:05;13.00;;;6.03;;
35632;SDS011;21754;48.216;-1.628;2022-07-30T01:38:35;12.40;;;5.82;;
35632;SDS011;21754;48.216;-1.628;2022-07-30T01:41:02;13.63;;;6.03;;
35632;SDS011;21754;48.216;-1.628;2022-07-30T01:43:30;9.98;;;6.13;;
35632;SDS011;21754;48.216;-1.628;2022-07-30T01:45:59;8.70;;;5.68;;
35632;SDS011;21754;48.216;-1.628;2022-07-30T01:48:27;11.57;;;5.95;;
35632;SDS011;21754;48.216;-1.628;2022-07-30T01:50:54;10.85;;;6.50;;
35632;SDS011;21754;48.216;-1.628;2022-07-30T01:53:26;15.43;;;6.03;;
35632;SDS011;21754;48.216;-1.628;2022-07-30T01:55:54;9.88;;;7.00;;
35632;SDS011;21754;48.216;-1.628;2022-07-30T01:58:22;8.85;;;7.25;;
35632;SDS011;21754;48.216;-1.628;2022-07-30T02:00:50;11.98;;;7.38;;
35632;SDS011;21754;48.216;-1.628;2022-07-30T02:05:44;14.40;;;7.25;;
35632;SDS011;21754;48.216;-1.628;2022-07-30T02:08:35;9.77;;;6.85;;
35632;SDS011;21754;48.216;-1.628;2022-07-30T02:11:09;15.93;;;7.70;;
35632;SDS011;21754;48.216;-1.628;2022-07-30T02:13:44;15.23;;;6.80;;
35632;SDS011;21754;48.216;-1.628;2022-07-30T02:16:16;18.65;;;8.43;;
35632;SDS011;21754;48.216;-1.628;2022-07-30T02:18:52;13.80;;;8.20;;
35632;SDS011;21754;48.216;-1.628;2022-07-30T02:21:26;14.50;;;8.50;;
35632;SDS011;21754;48.216;-1.628;2022-07-30T02:23:59;14.95;;;9.32;;
35632;SDS011;21754;48.216;-1.628;2022-07-30T02:26:29;16.25;;;10.10;;
35632;SDS011;21754;48.216;-1.628;2022-07-30T02:28:57;20.20;;;9.23;;
35632;SDS011;21754;48.216;-1.628;2022-07-30T02:31:26;22.60;;;9.23;;
35632;SDS011;21754;48.216;-1.628;2022-07-30T02:33:54;21.50;;;10.07;;
35632;SDS011;21754;48.216;-1.628;2022-07-30T02:36:22;12.52;;;9.35;;
35632;SDS011;21754;48.216;-1.628;2022-07-30T02:38:50;14.27;;;9.82;;
35632;SDS011;21754;48.216;-1.628;2022-07-30T02:41:18;21.65;;;11.65;;
35632;SDS011;21754;48.216;-1.628;2022-07-30T02:43:48;14.13;;;10.00;;
35632;SDS011;21754;48.216;-1.628;2022-07-30T02:46:16;16.63;;;10.88;;
35632;SDS011;21754;48.216;-1.628;2022-07-30T02:48:44;23.10;;;10.95;;
35632;SDS011;21754;48.216;-1.628;2022-07-30T02:51:11;24.73;;;12.02;;
35632;SDS011;21754;48.216;-1.628;2022-07-30T02:53:41;16.88;;;11.43;;
35632;SDS011;21754;48.216;-1.628;2022-07-30T02:56:09;19.27;;;12.35;;
35632;SDS011;21754;48.216;-1.628;2022-07-30T02:58:35;17.77;;;11.95;;
35632;SDS011;21754;48.216;-1.628;2022-07-30T03:01:02;16.80;;;12.00;;
35632;SDS011;21754;48.216;-1.628;2022-07-30T03:03:28;22.38;;;12.80;;
35632;SDS011;21754;48.216;-1.628;2022-07-30T03:05:55;17.98;;;12.25;;
35632;SDS011;21754;48.216;-1.628;2022-07-30T03:08:23;21.90;;;13.10;;
35632;SDS011;21754;48.216;-1.628;2022-07-30T03:10:52;25.67;;;14.27;;
35632;SDS011;21754;48.216;-1.628;2022-07-30T03:13:19;26.20;;;15.20;;
35632;SDS011;21754;48.216;-1.628;2022-07-30T03:18:14;35.33;;;17.67;;
35632;SDS011;21754;48.216;-1.628;2022-07-30T03:20:43;32.38;;;19.02;;
35632;SDS011;21754;48.216;-1.628;2022-07-30T03:23:11;40.17;;;21.75;;
35632;SDS011;21754;48.216;-1.628;2022-07-30T03:25:41;35.20;;;20.67;;
35632;SDS011;21754;48.216;-1.628;2022-07-30T03:28:13;39.25;;;23.00;;
35632;SDS011;21754;48.216;-1.628;2022-07-30T03:30:40;46.58;;;25.60;;
35632;SDS011;21754;48.216;-1.628;2022-07-30T03:33:08;46.72;;;26.00;;
35632;SDS011;21754;48.216;-1.628;2022-07-30T03:35:36;42.20;;;25.35;;
35632;SDS011;21754;48.216;-1.628;2022-07-30T03:38:02;48.83;;;26.00;;
35632;SDS011;21754;48.216;-1.628;2022-07-30T03:40:28;49.78;;;25.33;;
35632;SDS011;21754;48.216;-1.628;2022-07-30T03:42:55;40.45;;;25.00;;
35632;SDS011;21754;48.216;-1.628;2022-07-30T03:45:21;46.83;;;25.38;;
35632;SDS011;21754;48.216;-1.628;2022-07-30T03:47:47;42.47;;;23.38;;
35632;SDS011;21754;48.216;-1.628;2022-07-30T03:50:13;43.97;;;25.73;;
35632;SDS011;21754;48.216;-1.628;2022-07-30T03:52:40;45.85;;;25.60;;
35632;SDS011;21754;48.216;-1.628;2022-07-30T03:55:08;48.78;;;26.63;;
35632;SDS011;21754;48.216;-1.628;2022-07-30T03:57:35;41.22;;;23.45;;
35632;SDS011;21754;48.216;-1.628;2022-07-30T04:00:02;49.80;;;25.48;;
35632;SDS011;21754;48.216;-1.628;2022-07-30T04:02:31;41.45;;;24.75;;
35632;SDS011;21754;48.216;-1.628;2022-07-30T04:04:56;42.35;;;24.02;;
35632;SDS011;21754;48.216;-1.628;2022-07-30T04:07:22;53.55;;;26.50;;
35632;SDS011;21754;48.216;-1.628;2022-07-30T04:09:47;42.25;;;23.85;;
35632;SDS011;21754;48.216;-1.628;2022-07-30T04:12:13;42.63;;;24.25;;
35632;SDS011;21754;48.216;-1.628;2022-07-30T04:14:40;40.20;;;24.55;;
35632;SDS011;21754;48.216;-1.628;2022-07-30T04:17:15;40.17;;;23.48;;
35632;SDS011;21754;48.216;-1.628;2022-07-30T04:19:53;48.58;;;25.50;;
35632;SDS011;21754;48.216;-1.628;2022-07-30T04:24:55;49.75;;;23.77;;
35632;SDS011;21754;48.216;-1.628;2022-07-30T04:27:23;45.42;;;25.45;;
35632;SDS011;21754;48.216;-1.628;2022-07-30T04:29:52;51.50;;;25.05;;
35632;SDS011;21754;48.216;-1.628;2022-07-30T04:32:18;51.38;;;24.45;;
35632;SDS011;21754;48.216;-1.628;2022-07-30T04:34:48;46.85;;;25.27;;
35632;SDS011;21754;48.216;-1.628;2022-07-30T04:37:19;51.80;;;24.90;;
35632;SDS011;21754;48.216;-1.628;2022-07-30T04:39:46;43.47;;;24.20;;
35632;SDS011;21754;48.216;-1.628;2022-07-30T04:42:15;48.42;;;22.35;;
35632;SDS011;21754;48.216;-1.628;2022-07-30T04:44:41;44.60;;;24.17;;
35632;SDS011;21754;48.216;-1.628;2022-07-30T04:47:07;45.78;;;23.23;;
35632;SDS011;21754;48.216;-1.628;2022-07-30T04:49:33;40.63;;;23.13;;
35632;SDS011;21754;48.216;-1.628;2022-07-30T04:51:59;37.78;;;21.38;;
35632;SDS011;21754;48.216;-1.628;2022-07-30T04:54:26;37.17;;;21.83;;
35632;SDS011;21754;48.216;-1.628;2022-07-30T04:56:56;50.25;;;22.45;;
35632;SDS011;21754;48.216;-1.628;2022-07-30T04:59:23;47.63;;;23.02;;
35632;SDS011;21754;48.216;-1.628;2022-07-30T05:01:49;33.83;;;20.40;;
35632;SDS011;21754;48.216;-1.628;2022-07-30T05:04:16;45.20;;;23.40;;
35632;SDS011;21754;48.216;-1.628;2022-07-30T05:06:42;45.33;;;21.23;;
35632;SDS011;21754;48.216;-1.628;2022-07-30T05:09:09;43.08;;;22.65;;
35632;SDS011;21754;48.216;-1.628;2022-07-30T05:11:36;38.50;;;22.60;;
35632;SDS011;21754;48.216;-1.628;2022-07-30T05:14:01;40.65;;;23.02;;
35632;SDS011;21754;48.216;-1.628;2022-07-30T05:16:27;41.45;;;23.90;;
35632;SDS011;21754;48.216;-1.628;2022-07-30T05:18:53;48.92;;;21.27;;
35632;SDS011;21754;48.216;-1.628;2022-07-30T05:21:19;40.35;;;21.98;;
35632;SDS011;21754;48.216;-1.628;2022-07-30T05:23:44;45.70;;;23.95;;
35632;SDS011;21754;48.216;-1.628;2022-07-30T05:26:10;44.85;;;21.65;;
35632;SDS011;21754;48.216;-1.628;2022-07-30T05:28:36;43.85;;;22.27;;
35632;SDS011;21754;48.216;-1.628;2022-07-30T05:31:01;35.08;;;21.50;;
35632;SDS011;21754;48.216;-1.628;2022-07-30T05:33:27;37.00;;;21.58;;
35632;SDS011;21754;48.216;-1.628;2022-07-30T05:35:52;38.55;;;21.38;;
35632;SDS011;21754;48.216;-1.628;2022-07-30T05:38:18;40.17;;;21.52;;
35632;SDS011;21754;48.216;-1.628;2022-07-30T05:40:44;36.40;;;20.83;;
35632;SDS011;21754;48.216;-1.628;2022-07-30T05:43:10;35.50;;;21.60;;
35632;SDS011;21754;48.216;-1.628;2022-07-30T05:45:36;37.67;;;21.55;;
35632;SDS011;21754;48.216;-1.628;2022-07-30T05:48:02;36.17;;;21.05;;
35632;SDS011;21754;48.216;-1.628;2022-07-30T05:50:28;39.42;;;21.98;;
35632;SDS011;21754;48.216;-1.628;2022-07-30T05:52:53;35.10;;;22.67;;
35632;SDS011;21754;48.216;-1.628;2022-07-30T05:55:20;34.75;;;21.65;;
35632;SDS011;21754;48.216;-1.628;2022-07-30T05:57:46;37.47;;;22.42;;
35632;SDS011;21754;48.216;-1.628;2022-07-30T06:00:11;34.67;;;22.38;;
35632;SDS011;21754;48.216;-1.628;2022-07-30T06:02:37;36.67;;;22.40;;
35632;SDS011;21754;48.216;-1.628;2022-07-30T06:05:04;37.05;;;22.50;;
35632;SDS011;21754;48.216;-1.628;2022-07-30T06:07:31;33.63;;;20.60;;
35632;SDS011;21754;48.216;-1.628;2022-07-30T06:09:57;32.28;;;19.45;;
35632;SDS011;21754;48.216;-1.628;2022-07-30T06:12:27;31.70;;;18.73;;
35632;SDS011;21754;48.216;-1.628;2022-07-30T06:14:53;37.90;;;18.27;;
35632;SDS011;21754;48.216;-1.628;2022-07-30T06:17:20;36.40;;;19.67;;
35632;SDS011;21754;48.216;-1.628;2022-07-30T06:19:46;37.15;;;19.77;;
35632;SDS011;21754;48.216;-1.628;2022-07-30T06:22:12;34.30;;;18.02;;
35632;SDS011;21754;48.216;-1.628;2022-07-30T06:24:38;27.73;;;17.17;;
35632;SDS011;21754;48.216;-1.628;2022-07-30T06:27:04;32.58;;;17.38;;
35632;SDS011;21754;48.216;-1.628;2022-07-30T06:29:31;36.15;;;17.35;;
35632;SDS011;21754;48.216;-1.628;2022-07-30T06:31:57;28.42;;;17.42;;
35632;SDS011;21754;48.216;-1.628;2022-07-30T06:34:23;40.10;;;18.02;;
35632;SDS011;21754;48.216;-1.628;2022-07-30T06:36:49;29.02;;;16.55;;
35632;SDS011;21754;48.216;-1.628;2022-07-30T06:39:15;30.17;;;16.10;;
35632;SDS011;21754;48.216;-1.628;2022-07-30T06:41:41;23.05;;;15.63;;
35632;SDS011;21754;48.216;-1.628;2022-07-30T06:44:07;25.02;;;14.85;;
35632;SDS011;21754;48.216;-1.628;2022-07-30T06:46:33;33.53;;;16.45;;
35632;SDS011;21754;48.216;-1.628;2022-07-30T06:49:00;23.45;;;15.48;;
35632;SDS011;21754;48.216;-1.628;2022-07-30T06:51:26;19.50;;;13.48;;
35632;SDS011;21754;48.216;-1.628;2022-07-30T06:53:52;26.50;;;12.95;;
35632;SDS011;21754;48.216;-1.628;2022-07-30T06:56:18;19.80;;;12.10;;
35632;SDS011;21754;48.216;-1.628;2022-07-30T06:58:44;22.23;;;12.25;;
35632;SDS011;21754;48.216;-1.628;2022-07-30T07:01:10;21.23;;;12.43;;
35632;SDS011;21754;48.216;-1.628;2022-07-30T07:03:36;17.55;;;12.60;;
35632;SDS011;21754;48.216;-1.628;2022-07-30T07:06:02;22.20;;;11.38;;
35632;SDS011;21754;48.216;-1.628;2022-07-30T07:08:29;21.70;;;11.75;;
35632;SDS011;21754;48.216;-1.628;2022-07-30T07:10:55;17.38;;;10.32;;
35632;SDS011;21754;48.216;-1.628;2022-07-30T07:13:21;22.35;;;10.27;;
35632;SDS011;21754;48.216;-1.628;2022-07-30T07:15:47;15.85;;;9.07;;
35632;SDS011;21754;48.216;-1.628;2022-07-30T07:18:14;24.30;;;9.63;;
35632;SDS011;21754;48.216;-1.628;2022-07-30T07:20:40;12.82;;;9.10;;
35632;SDS011;21754;48.216;-1.628;2022-07-30T07:23:07;9.57;;;7.65;;
35632;SDS011;21754;48.216;-1.628;2022-07-30T07:25:33;12.10;;;8.15;;
35632;SDS011;21754;48.216;-1.628;2022-07-30T07:27:59;10.30;;;6.53;;
35632;SDS011;21754;48.216;-1.628;2022-07-30T07:30:25;6.95;;;5.30;;
35632;SDS011;21754;48.216;-1.628;2022-07-30T07:32:51;9.10;;;5.57;;
35632;SDS011;21754;48.216;-1.628;2022-07-30T07:35:17;10.98;;;5.75;;
35632;SDS011;21754;48.216;-1.628;2022-07-30T07:37:43;7.68;;;4.72;;
35632;SDS011;21754;48.216;-1.628;2022-07-30T07:40:09;9.48;;;5.57;;
35632;SDS011;21754;48.216;-1.628;2022-07-30T07:42:35;6.25;;;5.30;;
35632;SDS011;21754;48.216;-1.628;2022-07-30T07:45:01;6.55;;;5.38;;
35632;SDS011;21754;48.216;-1.628;2022-07-30T07:47:27;6.40;;;5.07;;
35632;SDS011;21754;48.216;-1.628;2022-07-30T07:49:54;7.63;;;5.35;;
35632;SDS011;21754;48.216;-1.628;2022-07-30T07:52:20;6.43;;;4.85;;
35632;SDS011;21754;48.216;-1.628;2022-07-30T07:54:46;6.30;;;5.30;;
35632;SDS011;21754;48.216;-1.628;2022-07-30T07:57:12;8.35;;;4.18;;
35632;SDS011;21754;48.216;-1.628;2022-07-30T07:59:38;4.38;;;3.58;;
35632;SDS011;21754;48.216;-1.628;2022-07-30T08:02:04;12.73;;;3.55;;
35632;SDS011;21754;48.216;-1.628;2022-07-30T08:04:30;6.63;;;3.58;;
35632;SDS011;21754;48.216;-1.628;2022-07-30T08:06:56;5.45;;;2.00;;
35632;SDS011;21754;48.216;-1.628;2022-07-30T08:09:22;3.70;;;1.85;;
35632;SDS011;21754;48.216;-1.628;2022-07-30T08:11:48;2.25;;;1.50;;
35632;SDS011;21754;48.216;-1.628;2022-07-30T08:14:14;2.45;;;1.20;;
35632;SDS011;21754;48.216;-1.628;2022-07-30T08:16:40;3.03;;;1.63;;
35632;SDS011;21754;48.216;-1.628;2022-07-30T08:19:06;2.55;;;1.20;;
35632;SDS011;21754;48.216;-1.628;2022-07-30T08:21:33;4.78;;;1.65;;
35632;SDS011;21754;48.216;-1.628;2022-07-30T08:23:59;2.38;;;0.80;;
35632;SDS011;21754;48.216;-1.628;2022-07-30T08:26:25;3.60;;;1.42;;
35632;SDS011;21754;48.216;-1.628;2022-07-30T08:28:51;7.50;;;1.90;;
35632;SDS011;21754;48.216;-1.628;2022-07-30T08:31:17;6.78;;;1.40;;
35632;SDS011;21754;48.216;-1.628;2022-07-30T08:33:43;5.25;;;2.00;;
35632;SDS011;21754;48.216;-1.628;2022-07-30T08:36:09;2.00;;;1.50;;
35632;SDS011;21754;48.216;-1.628;2022-07-30T08:38:35;2.10;;;1.90;;
35632;SDS011;21754;48.216;-1.628;2022-07-30T08:41:01;1.13;;;0.70;;
35632;SDS011;21754;48.216;-1.628;2022-07-30T08:43:27;1.65;;;1.55;;
35632;SDS011;21754;48.216;-1.628;2022-07-30T08:45:53;6.55;;;1.60;;
35632;SDS011;21754;48.216;-1.628;2022-07-30T08:48:21;1.33;;;1.20;;
35632;SDS011;21754;48.216;-1.628;2022-07-30T08:50:48;2.85;;;1.17;;
35632;SDS011;21754;48.216;-1.628;2022-07-30T08:53:14;1.92;;;1.27;;
35632;SDS011;21754;48.216;-1.628;2022-07-30T08:55:42;2.60;;;1.58;;
35632;SDS011;21754;48.216;-1.628;2022-07-30T08:58:19;1.10;;;0.88;;
35632;SDS011;21754;48.216;-1.628;2022-07-30T09:00:52;1.13;;;1.00;;
35632;SDS011;21754;48.216;-1.628;2022-07-30T09:03:17;1.83;;;1.10;;
35632;SDS011;21754;48.216;-1.628;2022-07-30T09:05:43;3.08;;;0.90;;
35632;SDS011;21754;48.216;-1.628;2022-07-30T09:08:10;1.13;;;0.90;;
35632;SDS011;21754;48.216;-1.628;2022-07-30T09:10:36;8.30;;;2.53;;
35632;SDS011;21754;48.216;-1.628;2022-07-30T09:13:02;4.05;;;1.10;;
35632;SDS011;21754;48.216;-1.628;2022-07-30T09:15:28;2.05;;;0.90;;
35632;SDS011;21754;48.216;-1.628;2022-07-30T09:17:59;2.25;;;0.75;;
35632;SDS011;21754;48.216;-1.628;2022-07-30T09:20:26;3.50;;;0.90;;
35632;SDS011;21754;48.216;-1.628;2022-07-30T09:22:54;2.78;;;1.13;;
35632;SDS011;21754;48.216;-1.628;2022-07-30T09:27:49;2.80;;;0.90;;
35632;SDS011;21754;48.216;-1.628;2022-07-30T09:30:15;2.22;;;0.90;;
35632;SDS011;21754;48.216;-1.628;2022-07-30T09:32:47;0.85;;;0.85;;
35632;SDS011;21754;48.216;-1.628;2022-07-30T09:35:18;2.53;;;0.98;;
35632;SDS011;21754;48.216;-1.628;2022-07-30T09:37:45;5.20;;;0.95;;
35632;SDS011;21754;48.216;-1.628;2022-07-30T09:40:12;1.38;;;1.05;;
35632;SDS011;21754;48.216;-1.628;2022-07-30T09:42:39;0.60;;;0.60;;
35632;SDS011;21754;48.216;-1.628;2022-07-30T09:47:31;1.33;;;0.90;;
35632;SDS011;21754;48.216;-1.628;2022-07-30T09:50:31;1.30;;;0.98;;
35632;SDS011;21754;48.216;-1.628;2022-07-30T09:52:51;1.33;;;1.17;;
35632;SDS011;21754;48.216;-1.628;2022-07-30T09:55:30;3.03;;;0.68;;
35632;SDS011;21754;48.216;-1.628;2022-07-30T09:57:58;1.08;;;1.00;;
35632;SDS011;21754;48.216;-1.628;2022-07-30T10:02:51;6.53;;;0.93;;
35632;SDS011;21754;48.216;-1.628;2022-07-30T10:05:17;1.92;;;0.93;;
35632;SDS011;21754;48.216;-1.628;2022-07-30T10:10:20;0.93;;;0.80;;
35632;SDS011;21754;48.216;-1.628;2022-07-30T10:15:12;2.55;;;1.00;;
35632;SDS011;21754;48.216;-1.628;2022-07-30T10:20:06;2.22;;;2.08;;
35632;SDS011;21754;48.216;-1.628;2022-07-30T10:22:33;1.25;;;1.25;;
35632;SDS011;21754;48.216;-1.628;2022-07-30T10:25:00;1.35;;;0.68;;
35632;SDS011;21754;48.216;-1.628;2022-07-30T10:27:27;3.40;;;0.90;;
35632;SDS011;21754;48.216;-1.628;2022-07-30T10:29:53;2.97;;;0.85;;
35632;SDS011;21754;48.216;-1.628;2022-07-30T10:32:20;6.35;;;2.67;;
35632;SDS011;21754;48.216;-1.628;2022-07-30T10:34:46;1.85;;;0.77;;
35632;SDS011;21754;48.216;-1.628;2022-07-30T10:37:12;1.10;;;0.70;;
35632;SDS011;21754;48.216;-1.628;2022-07-30T10:39:51;4.85;;;0.88;;
35632;SDS011;21754;48.216;-1.628;2022-07-30T10:47:42;1.00;;;1.00;;
35632;SDS011;21754;48.216;-1.628;2022-07-30T10:52:45;2.10;;;1.15;;
35632;SDS011;21754;48.216;-1.628;2022-07-30T10:55:11;4.97;;;0.80;;
35632;SDS011;21754;48.216;-1.628;2022-07-30T10:57:55;1.20;;;0.75;;
35632;SDS011;21754;48.216;-1.628;2022-07-30T11:00:32;2.50;;;0.80;;
35632;SDS011;21754;48.216;-1.628;2022-07-30T11:03:11;1.50;;;1.02;;
35632;SDS011;21754;48.216;-1.628;2022-07-30T11:05:36;10.05;;;1.27;;
35632;SDS011;21754;48.216;-1.628;2022-07-30T11:10:52;1.88;;;1.23;;
35632;SDS011;21754;48.216;-1.628;2022-07-30T11:13:23;6.63;;;1.38;;
35632;SDS011;21754;48.216;-1.628;2022-07-30T11:16:22;0.80;;;0.60;;
35632;SDS011;21754;48.216;-1.628;2022-07-30T11:19:11;4.00;;;2.35;;
35632;SDS011;21754;48.216;-1.628;2022-07-30T11:21:41;1.52;;;0.93;;
35632;SDS011;21754;48.216;-1.628;2022-07-30T11:26:53;5.70;;;0.68;;
35632;SDS011;21754;48.216;-1.628;2022-07-30T11:29:31;1.85;;;0.88;;
35632;SDS011;21754;48.216;-1.628;2022-07-30T11:32:21;4.22;;;1.00;;
35632;SDS011;21754;48.216;-1.628;2022-07-30T11:35:09;4.10;;;0.70;;
35632;SDS011;21754;48.216;-1.628;2022-07-30T11:40:23;0.70;;;0.70;;
35632;SDS011;21754;48.216;-1.628;2022-07-30T11:42:50;3.63;;;1.17;;
35632;SDS011;21754;48.216;-1.628;2022-07-30T11:47:53;4.80;;;1.70;;
35632;SDS011;21754;48.216;-1.628;2022-07-30T11:50:22;0.85;;;0.85;;
35632;SDS011;21754;48.216;-1.628;2022-07-30T11:55:33;2.67;;;1.20;;
35632;SDS011;21754;48.216;-1.628;2022-07-30T11:58:01;0.77;;;0.77;;
35632;SDS011;21754;48.216;-1.628;2022-07-30T12:00:36;4.65;;;0.80;;
35632;SDS011;21754;48.216;-1.628;2022-07-30T12:03:10;2.47;;;0.90;;
35632;SDS011;21754;48.216;-1.628;2022-07-30T12:05:38;0.70;;;0.70;;
35632;SDS011;21754;48.216;-1.628;2022-07-30T12:08:04;0.80;;;0.80;;
35632;SDS011;21754;48.216;-1.628;2022-07-30T12:10:30;0.70;;;0.70;;
35632;SDS011;21754;48.216;-1.628;2022-07-30T12:13:05;2.22;;;1.42;;
35632;SDS011;21754;48.216;-1.628;2022-07-30T12:15:39;1.00;;;1.00;;
35632;SDS011;21754;48.216;-1.628;2022-07-30T12:18:07;1.55;;;0.93;;
35632;SDS011;21754;48.216;-1.628;2022-07-30T12:20:36;1.83;;;0.95;;
35632;SDS011;21754;48.216;-1.628;2022-07-30T12:23:08;0.80;;;0.80;;
35632;SDS011;21754;48.216;-1.628;2022-07-30T12:25:41;0.63;;;0.50;;
35632;SDS011;21754;48.216;-1.628;2022-07-30T12:28:10;4.38;;;1.80;;
35632;SDS011;21754;48.216;-1.628;2022-07-30T12:30:43;2.45;;;0.80;;
35632;SDS011;21754;48.216;-1.628;2022-07-30T12:33:09;1.50;;;0.80;;
35632;SDS011;21754;48.216;-1.628;2022-07-30T12:38:11;1.45;;;1.05;;
35632;SDS011;21754;48.216;-1.628;2022-07-30T12:46:25;1.95;;;1.13;;
35632;SDS011;21754;48.216;-1.628;2022-07-30T12:48:56;2.13;;;0.85;;
35632;SDS011;21754;48.216;-1.628;2022-07-30T12:51:27;2.53;;;0.80;;
35632;SDS011;21754;48.216;-1.628;2022-07-30T12:53:58;1.55;;;0.88;;
35632;SDS011;21754;48.216;-1.628;2022-07-30T12:56:26;2.28;;;0.88;;
35632;SDS011;21754;48.216;-1.628;2022-07-30T12:58:54;2.90;;;0.90;;
35632;SDS011;21754;48.216;-1.628;2022-07-30T13:04:05;1.40;;;0.82;;
35632;SDS011;21754;48.216;-1.628;2022-07-30T13:06:31;3.50;;;1.25;;
35632;SDS011;21754;48.216;-1.628;2022-07-30T13:08:57;0.77;;;0.77;;
35632;SDS011;21754;48.216;-1.628;2022-07-30T13:11:37;4.60;;;0.80;;
35632;SDS011;21754;48.216;-1.628;2022-07-30T13:14:03;1.42;;;1.23;;
35632;SDS011;21754;48.216;-1.628;2022-07-30T13:16:32;3.50;;;0.90;;
35632;SDS011;21754;48.216;-1.628;2022-07-30T13:18:59;2.78;;;0.88;;
35632;SDS011;21754;48.216;-1.628;2022-07-30T13:21:25;2.22;;;1.00;;
35632;SDS011;21754;48.216;-1.628;2022-07-30T13:23:51;1.75;;;0.90;;
35632;SDS011;21754;48.216;-1.628;2022-07-30T13:26:16;1.00;;;0.80;;
35632;SDS011;21754;48.216;-1.628;2022-07-30T13:28:42;1.65;;;0.70;;
35632;SDS011;21754;48.216;-1.628;2022-07-30T13:31:10;0.70;;;0.70;;
35632;SDS011;21754;48.216;-1.628;2022-07-30T13:33:37;1.73;;;0.90;;
35632;SDS011;21754;48.216;-1.628;2022-07-30T13:36:03;0.88;;;0.88;;
35632;SDS011;21754;48.216;-1.628;2022-07-30T13:38:30;4.38;;;1.33;;
35632;SDS011;21754;48.216;-1.628;2022-07-30T13:40:56;1.27;;;1.17;;
35632;SDS011;21754;48.216;-1.628;2022-07-30T13:43:22;1.13;;;0.70;;
35632;SDS011;21754;48.216;-1.628;2022-07-30T13:45:48;0.70;;;0.70;;
35632;SDS011;21754;48.216;-1.628;2022-07-30T13:48:15;0.90;;;0.90;;
35632;SDS011;21754;48.216;-1.628;2022-07-30T13:50:41;1.40;;;0.95;;
35632;SDS011;21754;48.216;-1.628;2022-07-30T13:53:08;0.73;;;0.73;;
35632;SDS011;21754;48.216;-1.628;2022-07-30T13:55:35;1.08;;;0.80;;
35632;SDS011;21754;48.216;-1.628;2022-07-30T13:58:01;1.15;;;1.05;;
35632;SDS011;21754;48.216;-1.628;2022-07-30T14:00:28;2.50;;;1.60;;
35632;SDS011;21754;48.216;-1.628;2022-07-30T14:02:59;1.00;;;0.80;;
35632;SDS011;21754;48.216;-1.628;2022-07-30T14:05:26;1.10;;;1.00;;
35632;SDS011;21754;48.216;-1.628;2022-07-30T14:07:52;0.80;;;0.80;;
35632;SDS011;21754;48.216;-1.628;2022-07-30T14:10:18;5.90;;;1.00;;
35632;SDS011;21754;48.216;-1.628;2022-07-30T14:12:47;1.00;;;0.77;;
35632;SDS011;21754;48.216;-1.628;2022-07-30T14:15:14;0.70;;;0.70;;
35632;SDS011;21754;48.216;-1.628;2022-07-30T14:17:39;0.93;;;0.70;;
35632;SDS011;21754;48.216;-1.628;2022-07-30T14:20:05;4.95;;;0.98;;
35632;SDS011;21754;48.216;-1.628;2022-07-30T14:22:31;0.75;;;0.75;;
35632;SDS011;21754;48.216;-1.628;2022-07-30T14:24:57;4.35;;;0.70;;
35632;SDS011;21754;48.216;-1.628;2022-07-30T14:27:24;1.25;;;0.73;;
35632;SDS011;21754;48.216;-1.628;2022-07-30T14:29:50;0.90;;;0.90;;
35632;SDS011;21754;48.216;-1.628;2022-07-30T14:32:16;1.40;;;0.65;;
35632;SDS011;21754;48.216;-1.628;2022-07-30T14:34:42;0.70;;;0.68;;
35632;SDS011;21754;48.216;-1.628;2022-07-30T14:37:07;0.50;;;0.50;;
35632;SDS011;21754;48.216;-1.628;2022-07-30T14:39:33;0.65;;;0.65;;
35632;SDS011;21754;48.216;-1.628;2022-07-30T14:41:59;5.75;;;0.88;;
35632;SDS011;21754;48.216;-1.628;2022-07-30T14:44:24;0.60;;;0.60;;
35632;SDS011;21754;48.216;-1.628;2022-07-30T14:46:50;0.65;;;0.50;;
35632;SDS011;21754;48.216;-1.628;2022-07-30T14:49:16;0.85;;;0.85;;
35632;SDS011;21754;48.216;-1.628;2022-07-30T14:51:43;1.85;;;0.60;;
35632;SDS011;21754;48.216;-1.628;2022-07-30T14:54:09;0.90;;;0.90;;
35632;SDS011;21754;48.216;-1.628;2022-07-30T14:56:36;0.70;;;0.70;;
35632;SDS011;21754;48.216;-1.628;2022-07-30T14:59:03;8.32;;;0.75;;
35632;SDS011;21754;48.216;-1.628;2022-07-30T15:01:29;1.45;;;1.35;;
35632;SDS011;21754;48.216;-1.628;2022-07-30T15:03:54;1.70;;;0.70;;
35632;SDS011;21754;48.216;-1.628;2022-07-30T15:06:20;1.70;;;0.90;;
35632;SDS011;21754;48.216;-1.628;2022-07-30T15:08:46;1.35;;;0.68;;
35632;SDS011;21754;48.216;-1.628;2022-07-30T15:11:12;0.60;;;0.60;;
35632;SDS011;21754;48.216;-1.628;2022-07-30T15:13:38;0.88;;;0.88;;
35632;SDS011;21754;48.216;-1.628;2022-07-30T15:16:04;1.38;;;0.60;;
35632;SDS011;21754;48.216;-1.628;2022-07-30T15:18:30;0.82;;;0.65;;
35632;SDS011;21754;48.216;-1.628;2022-07-30T15:20:56;1.15;;;0.80;;
35632;SDS011;21754;48.216;-1.628;2022-07-30T15:23:22;1.45;;;0.70;;
35632;SDS011;21754;48.216;-1.628;2022-07-30T15:25:48;0.60;;;0.60;;